Time;durP1;ratioP1;P1;durP2;ratioP2;P2;SDS_P1;SDS_P2;PMS_P1;PMS_P2;Temp;Humidity;BMP_temperature;BMP_pressure;BME280_temperature;BME280_humidity;BME280_pressure;Samples;Min_cycle;Max_cycle;Signal;HPM_P1;HPM_P2
2023/06/13 00:00:23;;;;;;;36.50;27.58;;;16.60;99.90;;;;;;5068049;28;20040;-76
2023/06/13 00:02:51;;;;;;;36.20;28.00;;;16.60;99.90;;;;;;5068407;28;20045;-76
2023/06/13 00:05:21;;;;;;;33.85;27.00;;;16.60;99.90;;;;;;5070595;28;20139;-77
2023/06/13 00:07:49;;;;;;;34.95;28.13;;;16.60;99.90;;;;;;5072410;28;20156;-77
2023/06/13 00:10:17;;;;;;;34.28;26.67;;;16.50;99.90;;;;;;5071155;28;20123;-77
2023/06/13 00:12:49;;;;;;;38.53;29.25;;;16.50;99.90;;;;;;5068455;28;20041;-77
2023/06/13 00:15:16;;;;;;;39.88;29.95;;;16.50;99.90;;;;;;5067847;28;20045;-77
2023/06/13 00:17:45;;;;;;;37.47;29.33;;;16.40;99.90;;;;;;5066942;28;20064;-76
2023/06/13 00:20:13;;;;;;;38.63;30.27;;;16.40;99.90;;;;;;5068282;28;20045;-76
2023/06/13 00:22:40;;;;;;;39.20;30.48;;;16.40;99.90;;;;;;5068512;28;20416;-77
2023/06/13 00:25:08;;;;;;;36.30;28.20;;;16.40;99.90;;;;;;5068119;28;20044;-77
2023/06/13 00:27:35;;;;;;;44.30;30.50;;;16.40;99.90;;;;;;5067315;28;20037;-77
2023/06/13 00:30:06;;;;;;;35.17;28.58;;;16.40;99.90;;;;;;5054872;28;20033;-77
2023/06/13 00:32:34;;;;;;;32.92;28.55;;;16.40;99.90;;;;;;5067839;28;20036;-77
2023/06/13 00:35:02;;;;;;;31.13;26.55;;;16.40;99.90;;;;;;5046875;28;20048;-77
2023/06/13 00:37:34;;;;;;;34.17;27.35;;;16.50;99.90;;;;;;5068147;28;20152;-77
2023/06/13 00:40:03;;;;;;;36.13;27.25;;;16.50;99.90;;;;;;5066664;28;20052;-77
2023/06/13 00:42:31;;;;;;;33.30;27.08;;;16.50;99.90;;;;;;5049664;28;20520;-76
2023/06/13 00:45:20;;;;;;;40.10;27.88;;;16.50;99.90;;;;;;5066413;28;20037;-77
2023/06/13 00:47:54;;;;;;;34.70;25.48;;;16.50;99.90;;;;;;5039399;28;20049;-77
2023/06/13 00:50:27;;;;;;;30.90;22.25;;;16.50;99.90;;;;;;5055778;28;20135;-77
2023/06/13 00:52:56;;;;;;;33.95;22.88;;;16.40;99.90;;;;;;5067219;28;20044;-77
2023/06/13 00:55:25;;;;;;;28.65;21.88;;;16.40;99.90;;;;;;5068036;28;20103;-77
2023/06/13 00:57:55;;;;;;;29.17;22.27;;;16.40;99.90;;;;;;5067574;28;20170;-77
2023/06/13 01:00:25;;;;;;;27.55;21.20;;;16.40;99.90;;;;;;5046094;28;20135;-76
2023/06/13 01:02:57;;;;;;;38.22;23.30;;;16.40;99.90;;;;;;5067552;28;20645;-77
2023/06/13 01:05:25;;;;;;;27.98;23.20;;;16.40;99.90;;;;;;5068312;28;20051;-77
2023/06/13 01:07:57;;;;;;;31.98;24.00;;;16.40;99.90;;;;;;5067761;28;20117;-76
2023/06/13 01:10:26;;;;;;;30.75;23.95;;;16.40;99.90;;;;;;5063691;28;20045;-76
2023/06/13 01:13:01;;;;;;;35.83;25.13;;;16.40;99.90;;;;;;5063317;28;20432;-77
2023/06/13 01:15:34;;;;;;;34.90;23.88;;;16.40;99.90;;;;;;5065167;28;20121;-77
2023/06/13 01:18:03;;;;;;;30.08;21.88;;;16.40;99.90;;;;;;5038177;28;20076;-77
2023/06/13 01:20:33;;;;;;;24.48;17.77;;;16.30;99.90;;;;;;5057053;28;20044;-77
2023/06/13 01:23:22;;;;;;;11.60;7.65;;;16.30;99.90;;;;;;5066745;28;20060;-77
2023/06/13 01:26:00;;;;;;;5.07;3.60;;;16.20;1.00;;;;;;5045931;28;20048;-77
2023/06/13 01:28:32;;;;;;;7.32;4.32;;;16.10;1.00;;;;;;5067538;28;20052;-77
2023/06/13 01:31:02;;;;;;;7.45;4.80;;;16.10;1.00;;;;;;5047992;28;20040;-77
2023/06/13 01:33:31;;;;;;;10.43;5.07;;;16.10;1.00;;;;;;5055995;28;20044;-77
2023/06/13 01:35:58;;;;;;;6.78;4.97;;;16.20;1.00;;;;;;5039433;28;20036;-77
2023/06/13 01:38:27;;;;;;;8.45;4.97;;;16.10;99.90;;;;;;5053932;28;20040;-77
2023/06/13 01:40:54;;;;;;;8.98;5.78;;;16.20;1.00;;;;;;5069848;28;20124;-76
2023/06/13 01:43:22;;;;;;;7.75;3.33;;;16.20;99.90;;;;;;5067247;28;20066;-77
2023/06/13 01:45:55;;;;;;;7.75;2.70;;;16.20;1.00;;;;;;5070331;28;20106;-76
2023/06/13 01:48:30;;;;;;;;;;;16.20;1.00;;;;;;5050776;28;20040;-77
2023/06/13 01:51:07;;;;;;;8.52;3.17;;;16.20;99.90;;;;;;5052210;28;19927;-76
2023/06/13 01:53:43;;;;;;;11.75;2.78;;;16.20;99.90;;;;;;5066954;28;20051;-77
2023/06/13 01:56:18;;;;;;;3.22;2.28;;;16.20;99.90;;;;;;5069182;28;20040;-76
2023/06/13 01:58:51;;;;;;;6.07;2.27;;;16.20;45.10;;;;;;5048381;28;20054;-76
2023/06/13 02:01:22;;;;;;;5.35;2.42;;;16.10;1.70;;;;;;5070614;28;20377;-76
2023/06/13 02:03:49;;;;;;;5.68;2.45;;;16.10;1.00;;;;;;5070072;28;20045;-76
2023/06/13 02:06:17;;;;;;;7.75;2.63;;;16.10;1.00;;;;;;5067252;28;20075;-76
2023/06/13 02:08:45;;;;;;;6.22;2.25;;;16.10;1.00;;;;;;5047100;28;20040;-76
2023/06/13 02:11:14;;;;;;;3.63;2.13;;;16.10;1.00;;;;;;5050078;28;20121;-76
2023/06/13 02:13:42;;;;;;;7.05;2.50;;;16.10;1.00;;;;;;5060600;28;20048;-76
2023/06/13 02:16:10;;;;;;;7.13;2.80;;;16.00;1.00;;;;;;5052368;28;20086;-76
2023/06/13 02:18:39;;;;;;;8.43;3.10;;;16.00;1.00;;;;;;5048582;28;20107;-75
2023/06/13 02:21:08;;;;;;;6.78;2.85;;;15.90;78.80;;;;;;5065568;28;20124;-76
2023/06/13 02:23:36;;;;;;;6.85;2.70;;;15.90;99.90;;;;;;5059504;28;20090;-76
2023/06/13 02:26:04;;;;;;;3.90;2.65;;;15.80;99.90;;;;;;5068355;28;20044;-76
2023/06/13 02:28:34;;;;;;;3.70;2.22;;;15.80;99.90;;;;;;5068878;28;20480;-77
2023/06/13 02:31:01;;;;;;;6.35;2.50;;;15.80;99.90;;;;;;5070635;28;20055;-77
2023/06/13 02:33:31;;;;;;;6.22;2.55;;;15.90;99.90;;;;;;5049212;28;20518;-77
2023/06/13 02:36:00;;;;;;;7.80;2.80;;;15.80;99.90;;;;;;5070004;28;20040;-77
2023/06/13 02:38:27;;;;;;;3.92;2.78;;;15.80;95.50;;;;;;5068725;28;20045;-77
2023/06/13 02:40:55;;;;;;;5.95;2.95;;;15.80;99.90;;;;;;5064814;28;20044;-77
2023/06/13 02:43:23;;;;;;;6.47;2.97;;;15.70;99.90;;;;;;5066562;28;20443;-76
2023/06/13 02:45:51;;;;;;;7.75;2.60;;;15.80;99.90;;;;;;5059078;28;20048;-76
2023/06/13 02:48:21;;;;;;;9.25;2.60;;;15.80;99.90;;;;;;5051607;28;20492;-76
2023/06/13 02:50:50;;;;;;;5.72;2.85;;;15.80;23.50;;;;;;5050667;28;20504;-76
2023/06/13 02:53:19;;;;;;;7.03;2.80;;;15.70;1.00;;;;;;5066679;28;20048;-76
2023/06/13 02:55:48;;;;;;;8.77;2.20;;;15.60;14.40;;;;;;5063489;28;20072;-76
2023/06/13 02:58:15;;;;;;;9.15;2.78;;;15.60;28.00;;;;;;5059131;28;20143;-76
2023/06/13 03:00:43;;;;;;;3.70;2.42;;;15.60;58.40;;;;;;5050184;28;20041;-77
2023/06/13 03:03:16;;;;;;;6.82;3.03;;;15.60;99.90;;;;;;5048032;28;20053;-76
2023/06/13 03:05:47;;;;;;;6.97;2.95;;;15.60;99.90;;;;;;5046572;28;20040;-76
2023/06/13 03:08:19;;;;;;;4.75;3.03;;;15.60;99.90;;;;;;5058055;28;20163;-77
2023/06/13 03:10:48;;;;;;;9.68;3.28;;;15.60;99.90;;;;;;5042337;28;20520;-77
2023/06/13 03:13:19;;;;;;;6.68;2.67;;;15.70;99.90;;;;;;5037738;28;20048;-76
2023/06/13 03:15:47;;;;;;;5.93;2.70;;;15.60;99.90;;;;;;5041352;28;20086;-76
2023/06/13 03:18:16;;;;;;;7.88;3.20;;;15.60;99.90;;;;;;5057607;28;20037;-76
2023/06/13 03:20:46;;;;;;;10.93;3.42;;;15.60;99.90;;;;;;5041193;28;20404;-76
2023/06/13 03:23:16;;;;;;;7.93;3.03;;;15.60;1.00;;;;;;5039764;28;20041;-77
2023/06/13 03:25:46;;;;;;;6.93;3.58;;;15.60;1.00;;;;;;5057685;28;20051;-76
2023/06/13 03:28:14;;;;;;;6.18;3.30;;;15.60;1.00;;;;;;5042324;28;20053;-76
2023/06/13 03:30:41;;;;;;;8.15;3.50;;;15.60;11.10;;;;;;5066035;28;20105;-76
2023/06/13 03:33:10;;;;;;;9.85;3.97;;;15.60;99.90;;;;;;5040894;28;20045;-76
2023/06/13 03:35:41;;;;;;;14.60;4.68;;;15.50;99.90;;;;;;5049917;28;20048;-76
2023/06/13 03:38:09;;;;;;;10.05;4.65;;;15.50;99.90;;;;;;5056807;28;20124;-76
2023/06/13 03:40:37;;;;;;;10.85;4.65;;;15.50;99.90;;;;;;5069263;28;20042;-76
2023/06/13 03:43:06;;;;;;;14.65;10.25;;;15.40;99.90;;;;;;5065157;28;20140;-76
2023/06/13 03:45:33;;;;;;;14.55;7.63;;;15.50;1.00;;;;;;5049576;28;20045;-76
2023/06/13 03:48:01;;;;;;;14.32;7.18;;;15.50;50.50;;;;;;5063825;28;20151;-77
2023/06/13 03:50:29;;;;;;;10.00;4.85;;;15.60;1.00;;;;;;5057579;28;20043;-77
2023/06/13 03:52:56;;;;;;;10.55;4.30;;;15.60;1.00;;;;;;5065581;28;20041;-77
2023/06/13 03:55:24;;;;;;;8.55;4.28;;;15.60;3.80;;;;;;5048304;28;20141;-77
2023/06/13 03:57:52;;;;;;;13.50;5.07;;;15.60;11.50;;;;;;5066359;28;20450;-76
2023/06/13 04:00:22;;;;;;;8.30;3.70;;;15.70;1.00;;;;;;5049874;28;20045;-77
2023/06/13 04:02:49;;;;;;;15.07;6.97;;;15.80;1.00;;;;;;5049359;28;20071;-76
2023/06/13 04:05:17;;;;;;;8.70;4.43;;;15.80;1.00;;;;;;5036614;28;20052;-76
2023/06/13 04:07:45;;;;;;;9.23;4.68;;;15.90;1.00;;;;;;5065974;28;20045;-76
2023/06/13 04:10:12;;;;;;;8.90;3.90;;;15.90;1.00;;;;;;5041796;28;20081;-77
2023/06/13 04:12:40;;;;;;;9.57;4.05;;;15.90;1.00;;;;;;5060362;28;20045;-75
2023/06/13 04:15:08;;;;;;;12.27;3.80;;;16.00;1.00;;;;;;5070952;28;20653;-77
2023/06/13 04:17:39;;;;;;;6.32;3.33;;;16.10;1.00;;;;;;5051805;28;20531;-78
2023/06/13 04:20:10;;;;;;;8.88;4.15;;;16.10;1.00;;;;;;5048928;28;20442;-77
2023/06/13 04:22:38;;;;;;;7.22;3.42;;;16.20;1.00;;;;;;5047485;28;20102;-77
2023/06/13 04:25:07;;;;;;;8.40;3.42;;;16.30;99.90;;;;;;5046418;28;20164;-77
2023/06/13 04:27:36;;;;;;;5.88;3.03;;;16.30;99.90;;;;;;5046087;28;20049;-77
2023/06/13 04:30:04;;;;;;;8.52;3.58;;;16.40;99.90;;;;;;5029820;28;20076;-77
2023/06/13 04:32:33;;;;;;;15.43;3.75;;;16.50;99.90;;;;;;5048058;28;20052;-77
2023/06/13 04:35:03;;;;;;;5.45;3.08;;;16.50;99.90;;;;;;5047255;28;20128;-77
2023/06/13 04:37:30;;;;;;;8.13;3.60;;;16.60;99.90;;;;;;5047852;28;20114;-77
2023/06/13 04:39:58;;;;;;;11.60;3.88;;;16.70;99.90;;;;;;5047534;28;20106;-77
2023/06/13 04:42:28;;;;;;;9.45;4.00;;;16.70;46.90;;;;;;5046124;28;20051;-78
2023/06/13 04:44:57;;;;;;;12.05;3.67;;;16.80;1.00;;;;;;5046990;28;20052;-76
2023/06/13 04:47:25;;;;;;;6.57;3.83;;;17.00;1.00;;;;;;5045337;28;20045;-79
2023/06/13 04:49:57;;;;;;;7.07;3.70;;;17.00;1.00;;;;;;5047050;28;20041;-77
2023/06/13 04:52:27;;;;;;;8.43;3.35;;;17.10;1.00;;;;;;5045398;28;20561;-76
2023/06/13 04:54:55;;;;;;;4.82;3.00;;;17.10;1.00;;;;;;5047060;28;20090;-78
2023/06/13 04:57:22;;;;;;;4.68;2.90;;;17.30;1.00;;;;;;5046967;28;20067;-77
2023/06/13 04:59:50;;;;;;;6.43;3.55;;;17.40;1.00;;;;;;5047086;28;20523;-75
2023/06/13 05:02:17;;;;;;;9.70;4.50;;;17.50;1.00;;;;;;5046906;28;20520;-77
2023/06/13 05:04:47;;;;;;;6.57;2.97;;;17.70;1.00;;;;;;5047121;28;20512;-77
2023/06/13 05:07:16;;;;;;;5.78;3.80;;;17.80;1.00;;;;;;5046720;28;20489;-77
2023/06/13 05:09:45;;;;;;;7.43;3.10;;;17.80;1.00;;;;;;5045546;28;20041;-79
2023/06/13 05:12:14;;;;;;;4.65;2.60;;;17.90;1.00;;;;;;5045187;28;20465;-77
2023/06/13 05:14:41;;;;;;;5.88;3.80;;;18.00;1.00;;;;;;5047544;28;20045;-77
2023/06/13 05:17:09;;;;;;;4.10;2.65;;;18.20;1.00;;;;;;5050281;28;20049;-77
2023/06/13 05:19:37;;;;;;;6.47;2.60;;;18.30;1.00;;;;;;5051658;28;20041;-78
2023/06/13 05:22:05;;;;;;;4.38;2.65;;;18.60;1.00;;;;;;5062774;28;20131;-77
2023/06/13 05:24:34;;;;;;;3.75;2.83;;;18.90;1.00;;;;;;5071271;28;20139;-78
2023/06/13 05:27:02;;;;;;;5.38;3.65;;;19.70;1.00;;;;;;5070250;28;20047;-77
2023/06/13 05:29:30;;;;;;;9.90;3.75;;;20.00;99.90;;;;;;5070409;28;20678;-77
2023/06/13 05:31:58;;;;;;;7.22;4.28;;;20.10;99.90;;;;;;5069847;28;20044;-77
2023/06/13 05:34:26;;;;;;;11.57;4.05;;;20.20;99.90;;;;;;5071377;28;20036;-78
2023/06/13 05:36:55;;;;;;;6.03;2.85;;;20.40;99.90;;;;;;5070754;28;20507;-77
2023/06/13 05:39:22;;;;;;;4.60;2.55;;;20.00;99.90;;;;;;5049665;28;20044;-78
2023/06/13 05:41:50;;;;;;;7.03;2.30;;;19.70;99.90;;;;;;5070039;28;20074;-78
2023/06/13 05:44:19;;;;;;;7.85;2.67;;;19.90;99.90;;;;;;5068655;28;21735;-78
2023/06/13 05:46:46;;;;;;;5.60;2.88;;;19.70;99.90;;;;;;5066616;28;20067;-78
2023/06/13 05:49:13;;;;;;;7.72;5.20;;;19.80;99.90;;;;;;5069610;28;20048;-78
2023/06/13 05:51:41;;;;;;;5.03;2.67;;;20.00;99.90;;;;;;5068992;28;20040;-77
2023/06/13 05:54:09;;;;;;;9.15;4.70;;;20.20;99.90;;;;;;5068760;28;20144;-79
2023/06/13 05:56:36;;;;;;;6.18;3.72;;;20.40;99.90;;;;;;5070776;28;20135;-78
2023/06/13 05:59:03;;;;;;;3.88;2.75;;;20.50;99.90;;;;;;5070121;28;20376;-79
2023/06/13 06:01:34;;;;;;;9.32;4.57;;;20.80;99.90;;;;;;5070459;28;20404;-77
2023/06/13 06:04:02;;;;;;;6.65;3.15;;;21.10;99.90;;;;;;5070288;28;20455;-78
2023/06/13 06:06:29;;;;;;;7.50;4.38;;;21.30;99.90;;;;;;5056307;28;20028;-78
2023/06/13 06:08:56;;;;;;;8.98;2.78;;;21.50;99.90;;;;;;5069863;28;20048;-79
2023/06/13 06:11:24;;;;;;;5.45;2.63;;;21.30;99.90;;;;;;5070809;28;20051;-77
2023/06/13 06:13:52;;;;;;;5.18;2.58;;;21.30;99.90;;;;;;5060582;28;20040;-78
2023/06/13 06:16:20;;;;;;;6.20;3.38;;;21.20;99.90;;;;;;5069797;28;20036;-77
2023/06/13 06:18:50;;;;;;;7.00;5.18;;;21.10;99.90;;;;;;5067387;28;20051;-78
2023/06/13 06:21:17;;;;;;;7.43;4.18;;;21.10;99.90;;;;;;5066492;28;20091;-78
2023/06/13 06:23:45;;;;;;;4.20;2.90;;;21.00;99.90;;;;;;5068507;28;20408;-78
2023/06/13 06:26:12;;;;;;;8.20;2.80;;;20.50;99.90;;;;;;5050143;28;20053;-78
2023/06/13 06:28:41;;;;;;;4.78;2.88;;;20.40;99.90;;;;;;5070388;28;20033;-79
2023/06/13 06:31:09;;;;;;;6.43;3.13;;;20.60;99.90;;;;;;5069988;28;20048;-78
2023/06/13 06:33:39;;;;;;;7.40;4.10;;;20.30;99.90;;;;;;5070347;28;20072;-78
2023/06/13 06:36:08;;;;;;;6.75;4.20;;;20.60;99.90;;;;;;5048681;28;20060;-79
2023/06/13 06:38:35;;;;;;;8.45;5.60;;;21.00;99.90;;;;;;5069636;28;20055;-78
2023/06/13 06:41:03;;;;;;;8.73;4.10;;;21.40;99.90;;;;;;5073164;28;20051;-78
2023/06/13 06:43:33;;;;;;;7.15;5.00;;;21.80;99.90;;;;;;5074134;28;20775;-78
2023/06/13 06:46:08;;;;;;;10.00;5.22;;;22.00;99.90;;;;;;5072633;28;20067;-78
2023/06/13 06:48:36;;;;;;;7.45;4.82;;;22.20;99.90;;;;;;5062473;28;20127;-78
2023/06/13 06:51:03;;;;;;;10.23;3.25;;;22.50;98.90;;;;;;5073968;28;20033;-78
2023/06/13 06:53:33;;;;;;;9.45;4.20;;;22.90;83.90;;;;;;5074945;28;20048;-77
2023/06/13 06:56:00;;;;;;;7.22;3.30;;;23.10;45.40;;;;;;5075521;28;20119;-77
2023/06/13 06:58:28;;;;;;;8.98;6.47;;;23.20;30.00;;;;;;5070395;28;20048;-77
2023/06/13 07:00:57;;;;;;;10.10;4.07;;;23.30;15.50;;;;;;5076899;28;20046;-81
2023/06/13 07:03:24;;;;;;;6.85;3.45;;;23.30;5.00;;;;;;5081087;28;20123;-79
2023/06/13 07:05:52;;;;;;;8.40;4.20;;;23.00;2.80;;;;;;5069225;28;20098;-78
2023/06/13 07:08:19;;;;;;;12.50;4.90;;;23.20;6.60;;;;;;5069138;28;20048;-79
2023/06/13 07:10:48;;;;;;;14.05;6.35;;;23.20;1.00;;;;;;5070014;28;20048;-78
2023/06/13 07:13:16;;;;;;;11.13;4.38;;;23.50;1.00;;;;;;5073276;28;20067;-78
2023/06/13 07:15:43;;;;;;;11.02;4.97;;;23.90;1.00;;;;;;5068350;28;20040;-78
2023/06/13 07:18:11;;;;;;;25.10;18.13;;;24.30;1.00;;;;;;5065788;28;20044;-77
2023/06/13 07:20:38;;;;;;;14.25;7.65;;;24.30;1.00;;;;;;5049606;28;20425;-77
2023/06/13 07:23:07;;;;;;;9.30;4.53;;;24.30;1.00;;;;;;5068372;28;20131;-78
2023/06/13 07:25:34;;;;;;;8.10;5.00;;;24.70;1.00;;;;;;5069842;28;20513;-79
2023/06/13 07:28:03;;;;;;;11.20;4.93;;;24.20;1.00;;;;;;5049452;28;20416;-77
2023/06/13 07:30:30;;;;;;;8.30;4.32;;;24.10;1.00;;;;;;5069352;28;20048;-77
2023/06/13 07:32:58;;;;;;;4.88;3.45;;;24.20;1.00;;;;;;5068727;28;20059;-77
2023/06/13 07:35:26;;;;;;;13.18;7.50;;;24.30;1.00;;;;;;5048146;28;20404;-77
2023/06/13 07:37:54;;;;;;;8.80;6.38;;;24.10;1.00;;;;;;5047457;28;20044;-76
2023/06/13 07:40:23;;;;;;;14.50;9.80;;;24.00;1.00;;;;;;5068836;28;20043;-77
2023/06/13 07:42:51;;;;;;;6.47;4.10;;;23.80;1.00;;;;;;5068767;28;20567;-77
2023/06/13 07:45:20;;;;;;;11.52;7.88;;;23.60;1.00;;;;;;5059463;28;20072;-78
2023/06/13 07:47:47;;;;;;;11.40;5.40;;;23.70;1.00;;;;;;5053451;28;20044;-76
2023/06/13 07:50:17;;;;;;;7.53;3.55;;;23.80;1.00;;;;;;5059799;28;20044;-78
2023/06/13 07:52:44;;;;;;;8.00;5.13;;;23.50;1.00;;;;;;5057407;28;20400;-77
2023/06/13 07:55:12;;;;;;;12.23;5.35;;;23.30;1.00;;;;;;5062735;28;20036;-78
2023/06/13 07:57:40;;;;;;;7.55;3.88;;;22.50;1.00;;;;;;5059630;28;20089;-77
2023/06/13 08:00:12;;;;;;;7.60;3.70;;;22.20;1.00;;;;;;5068175;28;20404;-79
2023/06/13 08:02:41;;;;;;;5.78;3.38;;;22.10;1.00;;;;;;5067693;28;20720;-78
2023/06/13 08:05:09;;;;;;;5.60;3.85;;;22.00;1.00;;;;;;5049918;28;20052;-77
2023/06/13 08:07:39;;;;;;;10.48;3.60;;;21.90;1.00;;;;;;5069545;28;20047;-77
2023/06/13 08:10:07;;;;;;;7.45;4.53;;;22.10;1.00;;;;;;5069197;28;20124;-77
2023/06/13 08:12:35;;;;;;;7.20;4.07;;;22.20;1.00;;;;;;5047993;28;20047;-76
2023/06/13 08:15:05;;;;;;;7.53;3.65;;;22.30;1.00;;;;;;5049907;28;20063;-76
2023/06/13 08:17:36;;;;;;;7.18;3.40;;;22.70;1.00;;;;;;5068184;28;20057;-77
2023/06/13 08:20:08;;;;;;;9.35;3.22;;;22.90;1.00;;;;;;5067614;28;20044;-78
2023/06/13 08:22:37;;;;;;;8.20;2.80;;;22.80;1.00;;;;;;5068619;28;20155;-76
2023/06/13 08:25:07;;;;;;;5.13;2.30;;;22.70;1.00;;;;;;5068378;28;20139;-78
2023/06/13 08:27:36;;;;;;;6.13;3.10;;;22.80;1.00;;;;;;5068494;28;20051;-78
2023/06/13 08:30:06;;;;;;;8.40;3.15;;;23.20;1.00;;;;;;5067786;28;20044;-76
2023/06/13 08:32:34;;;;;;;5.70;3.22;;;23.40;1.00;;;;;;5067190;28;20040;-77
2023/06/13 08:35:03;;;;;;;5.65;3.40;;;23.40;1.00;;;;;;5049548;28;20109;-77
2023/06/13 08:37:32;;;;;;;7.95;3.88;;;23.40;1.00;;;;;;5058858;28;20116;-78
2023/06/13 08:39:59;;;;;;;5.65;3.25;;;23.10;1.00;;;;;;5067562;28;20086;-77
2023/06/13 08:42:28;;;;;;;5.65;3.17;;;23.10;1.00;;;;;;5067706;28;20093;-78
2023/06/13 08:44:56;;;;;;;9.35;3.45;;;22.90;1.00;;;;;;5048492;28;20052;-77
2023/06/13 08:47:24;;;;;;;7.75;3.65;;;22.80;1.00;;;;;;5048512;28;20086;-76
2023/06/13 08:49:52;;;;;;;6.93;3.30;;;23.10;1.00;;;;;;5070934;28;20032;-78
2023/06/13 08:52:20;;;;;;;9.73;5.22;;;23.40;1.00;;;;;;5071874;28;20040;-77
2023/06/13 08:54:59;;;;;;;7.20;4.00;;;23.80;1.00;;;;;;5071766;28;20044;-76
2023/06/13 08:57:31;;;;;;;5.93;3.30;;;23.90;1.00;;;;;;5070932;28;20051;-78
2023/06/13 08:59:58;;;;;;;7.13;3.00;;;23.90;1.00;;;;;;5071492;28;20496;-77
2023/06/13 09:02:27;;;;;;;8.88;4.75;;;24.10;1.00;;;;;;5071477;28;20048;-76
2023/06/13 09:04:55;;;;;;;7.82;4.55;;;24.30;1.00;;;;;;5070478;28;20067;-77
2023/06/13 09:07:23;;;;;;;8.32;4.10;;;24.30;1.00;;;;;;5071980;28;20045;-77
2023/06/13 09:09:53;;;;;;;5.68;4.40;;;24.20;1.00;;;;;;5071020;28;20044;-78
2023/06/13 09:12:21;;;;;;;6.93;3.78;;;24.50;1.00;;;;;;5071288;28;20040;-77
2023/06/13 09:14:48;;;;;;;4.80;3.55;;;24.50;1.00;;;;;;5070845;28;20045;-77
2023/06/13 09:17:17;;;;;;;6.25;3.10;;;24.00;1.00;;;;;;5052950;28;20044;-76
2023/06/13 09:19:45;;;;;;;7.57;4.57;;;24.10;1.00;;;;;;5052638;28;20041;-78
2023/06/13 09:22:13;;;;;;;5.30;3.15;;;24.30;1.00;;;;;;5067738;28;20049;-78
2023/06/13 09:24:41;;;;;;;6.57;3.08;;;24.40;1.00;;;;;;5070619;28;20045;-79
2023/06/13 09:27:11;;;;;;;5.40;2.85;;;23.80;1.00;;;;;;5069605;28;20499;-77
2023/06/13 09:29:38;;;;;;;4.38;3.08;;;23.40;1.00;;;;;;5067199;28;20049;-77
2023/06/13 09:32:08;;;;;;;7.82;2.78;;;23.60;1.00;;;;;;5069206;28;20033;-78
2023/06/13 09:34:37;;;;;;;5.78;2.20;;;23.80;1.00;;;;;;5070381;28;20148;-78
2023/06/13 09:37:08;;;;;;;5.93;2.88;;;23.60;1.00;;;;;;5071239;28;20520;-77
2023/06/13 09:39:36;;;;;;;6.15;2.85;;;23.60;1.00;;;;;;5069072;28;20045;-78
2023/06/13 09:42:05;;;;;;;7.13;4.05;;;23.40;1.00;;;;;;5052196;28;20538;-77
2023/06/13 09:44:34;;;;;;;7.63;5.03;;;23.30;1.00;;;;;;5048013;28;20033;-78
2023/06/13 09:47:02;;;;;;;5.68;3.20;;;23.40;1.00;;;;;;5070215;28;20040;-78
2023/06/13 09:49:32;;;;;;;6.15;1.85;;;23.50;1.00;;;;;;5051039;28;20041;-76
2023/06/13 09:52:01;;;;;;;4.40;2.40;;;23.60;1.00;;;;;;5070148;28;20045;-78
2023/06/13 09:54:31;;;;;;;5.75;3.28;;;23.40;1.00;;;;;;5069238;28;20055;-78
2023/06/13 09:56:58;;;;;;;3.88;2.47;;;23.40;1.00;;;;;;5068968;28;20494;-78
2023/06/13 09:59:26;;;;;;;5.25;2.95;;;23.50;1.00;;;;;;5067891;28;20041;-77
2023/06/13 10:01:55;;;;;;;3.60;2.15;;;23.70;1.00;;;;;;5068453;28;20072;-78
2023/06/13 10:04:24;;;;;;;4.47;2.83;;;23.80;1.00;;;;;;5069967;28;20041;-77
2023/06/13 10:06:51;;;;;;;9.20;2.78;;;24.10;1.00;;;;;;5069577;28;20041;-77
2023/06/13 10:09:19;;;;;;;3.72;2.03;;;24.30;1.00;;;;;;5068764;28;20047;-77
2023/06/13 10:11:51;;;;;;;7.03;2.05;;;24.20;1.00;;;;;;5069101;28;20079;-77
2023/06/13 10:14:26;;;;;;;5.10;2.47;;;23.90;1.00;;;;;;5068831;28;20052;-77
2023/06/13 10:17:01;;;;;;;3.47;1.98;;;23.70;1.00;;;;;;5069200;28;20047;-77
2023/06/13 10:19:30;;;;;;;4.00;2.47;;;23.60;1.00;;;;;;5068927;28;20044;-78
2023/06/13 10:21:58;;;;;;;5.13;2.50;;;23.70;1.00;;;;;;5069027;28;20487;-78
2023/06/13 10:24:27;;;;;;;4.97;4.00;;;23.80;1.00;;;;;;5069251;28;20046;-77
2023/06/13 10:26:59;;;;;;;4.63;2.53;;;24.00;1.00;;;;;;5069488;28;20040;-78
2023/06/13 10:29:54;;;;;;;5.30;2.30;;;24.00;1.00;;;;;;5065002;28;20125;-77
2023/06/13 10:32:40;;;;;;;7.00;3.15;;;24.00;1.00;;;;;;5058641;28;20044;-76
2023/06/13 10:35:44;;;;;;;4.80;4.25;;;24.20;1.00;;;;;;5069009;28;20064;-78
2023/06/13 10:38:38;;;;;;;4.25;2.38;;;24.30;1.00;;;;;;5067128;28;20048;-77
2023/06/13 10:41:26;;;;;;;7.43;3.75;;;24.60;1.00;;;;;;5041180;28;20056;-76
2023/06/13 10:43:58;;;;;;;8.23;3.28;;;24.60;1.00;;;;;;5067959;28;20040;-77
2023/06/13 10:46:26;;;;;;;7.50;3.75;;;24.60;1.00;;;;;;5066676;28;20041;-77
2023/06/13 10:48:55;;;;;;;4.25;2.47;;;24.70;1.00;;;;;;5068231;28;20397;-79
2023/06/13 10:51:25;;;;;;;6.25;3.15;;;24.80;1.00;;;;;;5068755;28;20048;-78
2023/06/13 10:53:58;;;;;;;6.25;3.47;;;24.90;1.00;;;;;;5067233;28;20051;-78
2023/06/13 10:56:31;;;;;;;3.92;2.92;;;24.90;1.00;;;;;;5067792;28;20472;-77
2023/06/13 10:59:05;;;;;;;10.00;3.70;;;25.10;1.00;;;;;;5049693;28;20048;-78
2023/06/13 11:01:34;;;;;;;5.93;3.40;;;24.90;1.00;;;;;;5068399;28;20044;-76
2023/06/13 11:04:11;;;;;;;7.43;3.50;;;24.90;1.00;;;;;;5049464;28;20122;-77
2023/06/13 11:06:40;;;;;;;4.22;2.42;;;24.80;1.00;;;;;;5068551;28;20044;-76
2023/06/13 11:09:18;;;;;;;5.55;2.20;;;25.00;1.00;;;;;;5067774;28;20040;-78
2023/06/13 11:11:48;;;;;;;5.38;3.15;;;25.10;1.00;;;;;;5068312;28;20047;-77
2023/06/13 11:14:17;;;;;;;5.85;3.90;;;25.30;1.00;;;;;;5069080;28;20044;-78
2023/06/13 11:16:45;;;;;;;4.22;2.67;;;25.60;1.00;;;;;;5066771;28;20105;-83
2023/06/13 11:19:17;;;;;;;5.45;2.97;;;25.40;1.00;;;;;;5070141;28;20041;-87
2023/06/13 11:21:46;;;;;;;3.97;2.50;;;25.30;1.00;;;;;;5066950;28;20048;-83
2023/06/13 11:24:18;;;;;;;7.53;4.55;;;25.20;1.00;;;;;;5059533;28;20086;-86
2023/06/13 11:26:46;;;;;;;44.47;11.48;;;25.20;1.00;;;;;;5067989;28;20048;-82
2023/06/13 11:29:16;;;;;;;16.67;11.65;;;25.20;1.00;;;;;;5070624;28;20062;-86
2023/06/13 11:31:43;;;;;;;47.15;33.35;;;25.30;1.00;;;;;;5059415;28;20044;-86
2023/06/13 11:34:17;;;;;;;26.73;16.58;;;25.30;1.00;;;;;;5072323;28;20043;-84
2023/06/13 11:36:45;;;;;;;9.38;5.50;;;25.20;1.00;;;;;;5069213;28;20052;-84
2023/06/13 11:39:15;;;;;;;28.48;15.25;;;25.20;1.00;;;;;;5068432;28;20074;-82
2023/06/13 11:41:44;;;;;;;6.38;3.05;;;25.00;1.00;;;;;;5068504;28;20052;-79
2023/06/13 11:44:13;;;;;;;6.05;2.58;;;25.00;1.00;;;;;;5042973;28;20062;-79
2023/06/13 11:46:46;;;;;;;8.57;2.40;;;25.10;1.00;;;;;;5068086;28;20050;-79
2023/06/13 11:49:15;;;;;;;10.60;7.50;;;25.10;1.00;;;;;;5067526;28;20629;-79
2023/06/13 11:51:43;;;;;;;4.32;2.70;;;24.80;1.00;;;;;;5067329;28;20540;-79
2023/06/13 11:54:12;;;;;;;7.30;4.40;;;24.80;1.00;;;;;;5068107;28;20108;-79
2023/06/13 11:56:51;;;;;;;6.03;3.92;;;24.60;1.00;;;;;;5067363;28;20114;-78
2023/06/13 11:59:21;;;;;;;9.77;3.30;;;24.50;1.00;;;;;;5067884;28;20052;-80
2023/06/13 12:01:53;;;;;;;5.43;2.90;;;24.30;1.00;;;;;;5067524;28;20090;-79
2023/06/13 12:04:23;;;;;;;6.40;3.13;;;24.50;1.00;;;;;;5067655;28;20052;-79
2023/06/13 12:06:52;;;;;;;4.63;3.13;;;24.70;1.00;;;;;;5068989;28;20059;-78
2023/06/13 12:09:19;;;;;;;13.68;4.88;;;24.70;1.00;;;;;;5068111;28;20048;-80
2023/06/13 12:11:47;;;;;;;8.63;3.88;;;24.80;1.00;;;;;;5068504;28;20101;-79
2023/06/13 12:14:18;;;;;;;6.88;3.17;;;24.70;1.00;;;;;;5064050;28;20504;-77
2023/06/13 12:16:49;;;;;;;6.32;2.90;;;24.70;1.00;;;;;;5067606;28;20047;-78
2023/06/13 12:19:19;;;;;;;5.53;3.35;;;24.60;1.00;;;;;;5068317;28;20408;-78
2023/06/13 12:21:50;;;;;;;7.03;3.00;;;24.60;1.00;;;;;;5067936;28;20142;-78
2023/06/13 12:24:19;;;;;;;6.85;3.08;;;24.80;1.00;;;;;;5059800;28;20063;-77
2023/06/13 12:26:47;;;;;;;7.05;2.92;;;24.80;1.00;;;;;;5068851;28;20056;-79
2023/06/13 12:29:16;;;;;;;6.60;3.78;;;24.60;1.00;;;;;;5067545;28;20135;-79
2023/06/13 12:31:47;;;;;;;6.47;2.80;;;24.60;1.00;;;;;;5057895;28;20112;-77
2023/06/13 12:34:26;;;;;;;5.20;2.40;;;24.80;1.00;;;;;;5067995;28;20040;-77
2023/06/13 12:37:02;;;;;;;7.53;3.20;;;24.70;1.00;;;;;;5067915;28;20044;-79
2023/06/13 12:39:30;;;;;;;5.90;2.35;;;24.60;1.00;;;;;;5066960;28;20049;-77
2023/06/13 12:42:02;;;;;;;6.22;2.47;;;24.50;1.00;;;;;;5068164;28;20048;-79
2023/06/13 12:44:33;;;;;;;4.57;3.00;;;24.40;1.00;;;;;;5066794;28;20044;-78
2023/06/13 12:47:03;;;;;;;6.90;2.90;;;24.50;1.00;;;;;;5067350;28;20089;-79
2023/06/13 12:49:36;;;;;;;6.95;2.50;;;24.80;1.00;;;;;;5058305;28;20049;-79
2023/06/13 12:52:06;;;;;;;7.20;2.67;;;24.80;1.00;;;;;;5067502;28;20052;-79
2023/06/13 12:54:36;;;;;;;5.85;2.78;;;24.70;1.00;;;;;;5067929;28;20049;-80
2023/06/13 12:57:06;;;;;;;4.80;2.80;;;24.50;1.00;;;;;;5066018;28;20511;-79
2023/06/13 12:59:36;;;;;;;4.80;2.67;;;24.30;1.00;;;;;;5065482;28;20167;-80
2023/06/13 13:02:05;;;;;;;5.78;3.30;;;24.30;1.00;;;;;;5067289;28;20601;-80